sensor_id;sensor_type;location;lat;lon;timestamp;P1;durP1;ratioP1;P2;durP2;ratioP2
26319;SDS011;14024;52.226;5.200;2023-03-09T00:00:41;35.78;;;13.82;;
26319;SDS011;14024;52.226;5.200;2023-03-09T00:03:07;37.38;;;14.85;;
26319;SDS011;14024;52.226;5.200;2023-03-09T00:05:40;34.35;;;13.98;;
26319;SDS011;14024;52.226;5.200;2023-03-09T00:08:06;30.80;;;11.77;;
26319;SDS011;14024;52.226;5.200;2023-03-09T00:10:32;28.42;;;11.40;;
26319;SDS011;14024;52.226;5.200;2023-03-09T00:12:58;33.63;;;11.23;;
26319;SDS011;14024;52.226;5.200;2023-03-09T00:15:24;31.95;;;12.02;;
26319;SDS011;14024;52.226;5.200;2023-03-09T00:17:50;30.02;;;10.88;;
26319;SDS011;14024;52.226;5.200;2023-03-09T00:20:16;24.80;;;10.70;;
26319;SDS011;14024;52.226;5.200;2023-03-09T00:22:52;27.73;;;10.63;;
26319;SDS011;14024;52.226;5.200;2023-03-09T00:25:18;31.48;;;11.73;;
26319;SDS011;14024;52.226;5.200;2023-03-09T00:27:46;26.08;;;11.10;;
26319;SDS011;14024;52.226;5.200;2023-03-09T00:30:12;32.00;;;11.20;;
26319;SDS011;14024;52.226;5.200;2023-03-09T00:32:39;30.55;;;11.50;;
26319;SDS011;14024;52.226;5.200;2023-03-09T00:35:05;27.45;;;10.45;;
26319;SDS011;14024;52.226;5.200;2023-03-09T00:37:33;30.38;;;11.77;;
26319;SDS011;14024;52.226;5.200;2023-03-09T00:39:59;30.80;;;12.30;;
26319;SDS011;14024;52.226;5.200;2023-03-09T00:42:25;31.42;;;11.70;;
26319;SDS011;14024;52.226;5.200;2023-03-09T00:44:54;30.98;;;11.95;;
26319;SDS011;14024;52.226;5.200;2023-03-09T00:47:20;33.10;;;12.90;;
26319;SDS011;14024;52.226;5.200;2023-03-09T00:49:46;31.98;;;12.98;;
26319;SDS011;14024;52.226;5.200;2023-03-09T00:52:12;31.35;;;12.57;;
26319;SDS011;14024;52.226;5.200;2023-03-09T00:54:38;29.25;;;12.88;;
26319;SDS011;14024;52.226;5.200;2023-03-09T00:57:04;28.25;;;12.05;;
26319;SDS011;14024;52.226;5.200;2023-03-09T00:59:30;30.48;;;12.32;;
26319;SDS011;14024;52.226;5.200;2023-03-09T01:01:56;28.30;;;11.57;;
26319;SDS011;14024;52.226;5.200;2023-03-09T01:04:23;28.75;;;11.18;;
26319;SDS011;14024;52.226;5.200;2023-03-09T01:06:49;27.73;;;12.57;;
26319;SDS011;14024;52.226;5.200;2023-03-09T01:09:18;29.63;;;11.23;;
26319;SDS011;14024;52.226;5.200;2023-03-09T01:11:44;28.15;;;11.63;;
26319;SDS011;14024;52.226;5.200;2023-03-09T01:14:10;28.35;;;11.93;;
26319;SDS011;14024;52.226;5.200;2023-03-09T01:16:36;28.13;;;10.73;;
26319;SDS011;14024;52.226;5.200;2023-03-09T01:19:02;26.88;;;11.27;;
26319;SDS011;14024;52.226;5.200;2023-03-09T01:21:28;24.98;;;10.10;;
26319;SDS011;14024;52.226;5.200;2023-03-09T01:23:54;27.63;;;11.23;;
26319;SDS011;14024;52.226;5.200;2023-03-09T01:26:20;27.40;;;11.38;;
26319;SDS011;14024;52.226;5.200;2023-03-09T01:28:46;28.95;;;10.75;;
26319;SDS011;14024;52.226;5.200;2023-03-09T01:31:13;27.30;;;10.93;;
26319;SDS011;14024;52.226;5.200;2023-03-09T01:33:39;29.60;;;11.43;;
26319;SDS011;14024;52.226;5.200;2023-03-09T01:36:06;27.33;;;11.30;;
26319;SDS011;14024;52.226;5.200;2023-03-09T01:38:33;29.08;;;11.82;;
26319;SDS011;14024;52.226;5.200;2023-03-09T01:40:59;29.48;;;11.18;;
26319;SDS011;14024;52.226;5.200;2023-03-09T01:48:36;28.67;;;12.32;;
26319;SDS011;14024;52.226;5.200;2023-03-09T01:51:02;29.63;;;11.98;;
26319;SDS011;14024;52.226;5.200;2023-03-09T01:53:28;25.75;;;11.40;;
26319;SDS011;14024;52.226;5.200;2023-03-09T01:55:54;30.52;;;12.52;;
26319;SDS011;14024;52.226;5.200;2023-03-09T01:58:22;27.17;;;10.88;;
26319;SDS011;14024;52.226;5.200;2023-03-09T02:00:50;32.58;;;11.85;;
26319;SDS011;14024;52.226;5.200;2023-03-09T02:03:20;26.45;;;10.98;;
26319;SDS011;14024;52.226;5.200;2023-03-09T02:08:16;28.08;;;11.70;;
26319;SDS011;14024;52.226;5.200;2023-03-09T02:10:55;25.75;;;11.05;;
26319;SDS011;14024;52.226;5.200;2023-03-09T02:13:24;28.27;;;11.07;;
26319;SDS011;14024;52.226;5.200;2023-03-09T02:15:50;25.48;;;10.38;;
26319;SDS011;14024;52.226;5.200;2023-03-09T02:18:16;27.25;;;10.13;;
26319;SDS011;14024;52.226;5.200;2023-03-09T02:20:55;25.40;;;10.25;;
26319;SDS011;14024;52.226;5.200;2023-03-09T02:23:27;27.10;;;10.60;;
26319;SDS011;14024;52.226;5.200;2023-03-09T02:25:57;25.13;;;10.23;;
26319;SDS011;14024;52.226;5.200;2023-03-09T02:28:25;26.88;;;10.40;;
26319;SDS011;14024;52.226;5.200;2023-03-09T02:30:51;25.40;;;9.93;;
26319;SDS011;14024;52.226;5.200;2023-03-09T02:33:25;25.58;;;10.88;;
26319;SDS011;14024;52.226;5.200;2023-03-09T02:35:52;22.77;;;9.07;;
26319;SDS011;14024;52.226;5.200;2023-03-09T02:38:18;22.25;;;9.80;;
26319;SDS011;14024;52.226;5.200;2023-03-09T02:40:44;22.35;;;9.43;;
26319;SDS011;14024;52.226;5.200;2023-03-09T02:43:11;20.77;;;9.00;;
26319;SDS011;14024;52.226;5.200;2023-03-09T02:45:37;23.75;;;9.35;;
26319;SDS011;14024;52.226;5.200;2023-03-09T02:48:04;22.33;;;9.15;;
26319;SDS011;14024;52.226;5.200;2023-03-09T02:50:30;20.90;;;8.65;;
26319;SDS011;14024;52.226;5.200;2023-03-09T02:52:56;20.10;;;8.52;;
26319;SDS011;14024;52.226;5.200;2023-03-09T02:55:22;25.20;;;9.63;;
26319;SDS011;14024;52.226;5.200;2023-03-09T02:57:48;24.30;;;9.52;;
26319;SDS011;14024;52.226;5.200;2023-03-09T03:00:14;22.05;;;9.77;;
26319;SDS011;14024;52.226;5.200;2023-03-09T03:02:41;26.55;;;10.10;;
26319;SDS011;14024;52.226;5.200;2023-03-09T03:05:07;24.23;;;9.70;;
26319;SDS011;14024;52.226;5.200;2023-03-09T03:07:33;20.30;;;8.85;;
26319;SDS011;14024;52.226;5.200;2023-03-09T03:09:59;25.13;;;8.73;;
26319;SDS011;14024;52.226;5.200;2023-03-09T03:12:25;21.60;;;9.75;;
26319;SDS011;14024;52.226;5.200;2023-03-09T03:14:51;23.35;;;9.77;;
26319;SDS011;14024;52.226;5.200;2023-03-09T03:17:17;23.17;;;9.48;;
26319;SDS011;14024;52.226;5.200;2023-03-09T03:19:43;23.63;;;9.50;;
26319;SDS011;14024;52.226;5.200;2023-03-09T03:22:09;23.90;;;9.93;;
26319;SDS011;14024;52.226;5.200;2023-03-09T03:24:36;26.30;;;9.93;;
26319;SDS011;14024;52.226;5.200;2023-03-09T03:27:02;24.60;;;9.75;;
26319;SDS011;14024;52.226;5.200;2023-03-09T03:29:28;23.75;;;9.38;;
26319;SDS011;14024;52.226;5.200;2023-03-09T03:31:54;21.98;;;9.35;;
26319;SDS011;14024;52.226;5.200;2023-03-09T03:34:20;25.90;;;9.52;;
26319;SDS011;14024;52.226;5.200;2023-03-09T03:36:46;26.33;;;10.05;;
26319;SDS011;14024;52.226;5.200;2023-03-09T03:39:12;21.75;;;10.27;;
26319;SDS011;14024;52.226;5.200;2023-03-09T03:41:38;25.95;;;10.48;;
26319;SDS011;14024;52.226;5.200;2023-03-09T03:44:04;27.08;;;10.30;;
26319;SDS011;14024;52.226;5.200;2023-03-09T03:46:30;28.33;;;10.63;;
26319;SDS011;14024;52.226;5.200;2023-03-09T03:48:56;25.70;;;9.80;;
26319;SDS011;14024;52.226;5.200;2023-03-09T03:51:22;30.45;;;11.55;;
26319;SDS011;14024;52.226;5.200;2023-03-09T03:53:48;29.27;;;11.57;;
26319;SDS011;14024;52.226;5.200;2023-03-09T03:56:14;26.40;;;10.80;;
26319;SDS011;14024;52.226;5.200;2023-03-09T03:58:40;25.52;;;10.85;;
26319;SDS011;14024;52.226;5.200;2023-03-09T04:01:07;30.20;;;11.95;;
26319;SDS011;14024;52.226;5.200;2023-03-09T04:03:33;27.90;;;11.40;;
26319;SDS011;14024;52.226;5.200;2023-03-09T04:05:59;29.20;;;11.23;;
26319;SDS011;14024;52.226;5.200;2023-03-09T04:08:27;29.52;;;11.60;;
26319;SDS011;14024;52.226;5.200;2023-03-09T04:10:53;30.63;;;11.45;;
26319;SDS011;14024;52.226;5.200;2023-03-09T04:13:19;32.20;;;12.20;;
26319;SDS011;14024;52.226;5.200;2023-03-09T04:15:45;29.85;;;11.75;;
26319;SDS011;14024;52.226;5.200;2023-03-09T04:18:11;38.13;;;13.38;;
26319;SDS011;14024;52.226;5.200;2023-03-09T04:20:37;31.40;;;13.18;;
26319;SDS011;14024;52.226;5.200;2023-03-09T04:23:04;32.13;;;13.43;;
26319;SDS011;14024;52.226;5.200;2023-03-09T04:25:31;35.38;;;12.50;;
26319;SDS011;14024;52.226;5.200;2023-03-09T04:27:57;35.78;;;14.02;;
26319;SDS011;14024;52.226;5.200;2023-03-09T04:30:23;34.80;;;13.82;;
26319;SDS011;14024;52.226;5.200;2023-03-09T04:32:49;37.25;;;13.68;;
26319;SDS011;14024;52.226;5.200;2023-03-09T04:35:16;32.20;;;13.80;;
26319;SDS011;14024;52.226;5.200;2023-03-09T04:37:42;43.53;;;14.82;;
26319;SDS011;14024;52.226;5.200;2023-03-09T04:40:11;35.00;;;13.38;;
26319;SDS011;14024;52.226;5.200;2023-03-09T04:42:37;38.70;;;13.68;;
26319;SDS011;14024;52.226;5.200;2023-03-09T04:45:03;38.70;;;14.45;;
26319;SDS011;14024;52.226;5.200;2023-03-09T04:47:30;39.47;;;14.43;;
26319;SDS011;14024;52.226;5.200;2023-03-09T04:49:56;37.72;;;14.95;;
26319;SDS011;14024;52.226;5.200;2023-03-09T04:52:22;34.30;;;13.63;;
26319;SDS011;14024;52.226;5.200;2023-03-09T04:54:48;41.80;;;15.95;;
26319;SDS011;14024;52.226;5.200;2023-03-09T04:57:14;37.83;;;15.00;;
26319;SDS011;14024;52.226;5.200;2023-03-09T04:59:40;38.53;;;14.07;;
26319;SDS011;14024;52.226;5.200;2023-03-09T05:02:06;33.00;;;13.70;;
26319;SDS011;14024;52.226;5.200;2023-03-09T05:04:32;36.15;;;15.38;;
26319;SDS011;14024;52.226;5.200;2023-03-09T05:06:58;38.13;;;14.80;;
26319;SDS011;14024;52.226;5.200;2023-03-09T05:09:24;33.70;;;14.77;;
26319;SDS011;14024;52.226;5.200;2023-03-09T05:11:51;38.10;;;14.75;;
26319;SDS011;14024;52.226;5.200;2023-03-09T05:14:17;37.92;;;15.52;;
26319;SDS011;14024;52.226;5.200;2023-03-09T05:16:44;34.78;;;13.98;;
26319;SDS011;14024;52.226;5.200;2023-03-09T05:19:10;37.17;;;15.00;;
26319;SDS011;14024;52.226;5.200;2023-03-09T05:21:36;37.97;;;15.65;;
26319;SDS011;14024;52.226;5.200;2023-03-09T05:24:02;41.30;;;16.38;;
26319;SDS011;14024;52.226;5.200;2023-03-09T05:26:29;36.78;;;15.35;;
26319;SDS011;14024;52.226;5.200;2023-03-09T05:28:54;39.03;;;16.20;;
26319;SDS011;14024;52.226;5.200;2023-03-09T05:31:20;39.63;;;14.60;;
26319;SDS011;14024;52.226;5.200;2023-03-09T05:33:46;33.28;;;13.98;;
26319;SDS011;14024;52.226;5.200;2023-03-09T05:36:17;39.10;;;15.10;;
26319;SDS011;14024;52.226;5.200;2023-03-09T05:38:43;38.13;;;15.25;;
26319;SDS011;14024;52.226;5.200;2023-03-09T05:41:09;38.13;;;15.63;;
26319;SDS011;14024;52.226;5.200;2023-03-09T05:43:35;33.90;;;14.25;;
26319;SDS011;14024;52.226;5.200;2023-03-09T05:46:01;38.58;;;15.52;;
26319;SDS011;14024;52.226;5.200;2023-03-09T05:48:27;33.75;;;13.73;;
26319;SDS011;14024;52.226;5.200;2023-03-09T05:50:54;33.97;;;14.05;;
26319;SDS011;14024;52.226;5.200;2023-03-09T05:53:20;36.70;;;15.43;;
26319;SDS011;14024;52.226;5.200;2023-03-09T05:55:50;34.70;;;14.73;;
26319;SDS011;14024;52.226;5.200;2023-03-09T05:58:17;44.63;;;16.67;;
26319;SDS011;14024;52.226;5.200;2023-03-09T06:00:43;39.50;;;15.55;;
26319;SDS011;14024;52.226;5.200;2023-03-09T06:03:09;39.13;;;15.90;;
26319;SDS011;14024;52.226;5.200;2023-03-09T06:05:35;39.30;;;17.02;;
26319;SDS011;14024;52.226;5.200;2023-03-09T06:08:01;38.72;;;16.17;;
26319;SDS011;14024;52.226;5.200;2023-03-09T06:10:27;44.05;;;17.50;;
26319;SDS011;14024;52.226;5.200;2023-03-09T06:12:53;40.97;;;16.90;;
26319;SDS011;14024;52.226;5.200;2023-03-09T06:15:19;42.00;;;17.33;;
26319;SDS011;14024;52.226;5.200;2023-03-09T06:17:44;37.38;;;14.43;;
26319;SDS011;14024;52.226;5.200;2023-03-09T06:20:11;39.80;;;16.58;;
26319;SDS011;14024;52.226;5.200;2023-03-09T06:22:37;38.53;;;15.77;;
26319;SDS011;14024;52.226;5.200;2023-03-09T06:25:06;38.97;;;16.00;;
26319;SDS011;14024;52.226;5.200;2023-03-09T06:27:33;37.95;;;15.80;;
26319;SDS011;14024;52.226;5.200;2023-03-09T06:29:59;38.60;;;15.43;;
26319;SDS011;14024;52.226;5.200;2023-03-09T06:32:25;35.05;;;15.15;;
26319;SDS011;14024;52.226;5.200;2023-03-09T06:34:51;38.50;;;14.75;;
26319;SDS011;14024;52.226;5.200;2023-03-09T06:37:17;37.83;;;15.77;;
26319;SDS011;14024;52.226;5.200;2023-03-09T06:39:43;36.25;;;15.13;;
26319;SDS011;14024;52.226;5.200;2023-03-09T06:42:09;39.78;;;15.35;;
26319;SDS011;14024;52.226;5.200;2023-03-09T06:44:35;37.22;;;16.05;;
26319;SDS011;14024;52.226;5.200;2023-03-09T06:47:01;36.80;;;16.00;;
26319;SDS011;14024;52.226;5.200;2023-03-09T06:49:27;39.38;;;15.82;;
26319;SDS011;14024;52.226;5.200;2023-03-09T06:51:52;36.35;;;15.48;;
26319;SDS011;14024;52.226;5.200;2023-03-09T06:54:18;35.60;;;15.40;;
26319;SDS011;14024;52.226;5.200;2023-03-09T06:56:44;40.42;;;16.08;;
26319;SDS011;14024;52.226;5.200;2023-03-09T06:59:11;35.78;;;15.13;;
26319;SDS011;14024;52.226;5.200;2023-03-09T07:01:37;36.92;;;15.80;;
26319;SDS011;14024;52.226;5.200;2023-03-09T07:04:03;36.53;;;16.48;;
26319;SDS011;14024;52.226;5.200;2023-03-09T07:06:29;39.67;;;15.80;;
26319;SDS011;14024;52.226;5.200;2023-03-09T07:08:55;42.85;;;17.52;;
26319;SDS011;14024;52.226;5.200;2023-03-09T07:11:21;37.70;;;15.63;;
26319;SDS011;14024;52.226;5.200;2023-03-09T07:13:48;42.50;;;16.85;;
26319;SDS011;14024;52.226;5.200;2023-03-09T07:16:14;36.05;;;15.35;;
26319;SDS011;14024;52.226;5.200;2023-03-09T07:18:40;39.72;;;15.50;;
26319;SDS011;14024;52.226;5.200;2023-03-09T07:21:06;40.22;;;15.88;;
26319;SDS011;14024;52.226;5.200;2023-03-09T07:23:32;37.28;;;15.50;;
26319;SDS011;14024;52.226;5.200;2023-03-09T07:26:01;40.20;;;17.05;;
26319;SDS011;14024;52.226;5.200;2023-03-09T07:28:27;34.10;;;15.30;;
26319;SDS011;14024;52.226;5.200;2023-03-09T07:30:53;39.83;;;16.63;;
26319;SDS011;14024;52.226;5.200;2023-03-09T07:33:19;39.58;;;15.43;;
26319;SDS011;14024;52.226;5.200;2023-03-09T07:35:45;37.97;;;15.60;;
26319;SDS011;14024;52.226;5.200;2023-03-09T07:38:11;40.25;;;16.48;;
26319;SDS011;14024;52.226;5.200;2023-03-09T07:40:38;40.33;;;17.40;;
26319;SDS011;14024;52.226;5.200;2023-03-09T07:43:04;36.92;;;14.90;;
26319;SDS011;14024;52.226;5.200;2023-03-09T07:45:30;37.45;;;15.98;;
26319;SDS011;14024;52.226;5.200;2023-03-09T07:47:56;38.15;;;15.15;;
26319;SDS011;14024;52.226;5.200;2023-03-09T07:50:22;35.70;;;15.50;;
26319;SDS011;14024;52.226;5.200;2023-03-09T07:52:48;38.40;;;15.13;;
26319;SDS011;14024;52.226;5.200;2023-03-09T07:55:15;39.08;;;16.02;;
26319;SDS011;14024;52.226;5.200;2023-03-09T07:57:41;35.15;;;15.25;;
26319;SDS011;14024;52.226;5.200;2023-03-09T08:00:12;38.38;;;16.65;;
26319;SDS011;14024;52.226;5.200;2023-03-09T08:02:39;41.40;;;16.38;;
26319;SDS011;14024;52.226;5.200;2023-03-09T08:05:08;38.53;;;16.23;;
26319;SDS011;14024;52.226;5.200;2023-03-09T08:07:35;38.05;;;16.27;;
26319;SDS011;14024;52.226;5.200;2023-03-09T08:10:01;37.75;;;15.88;;
26319;SDS011;14024;52.226;5.200;2023-03-09T08:12:27;43.20;;;17.48;;
26319;SDS011;14024;52.226;5.200;2023-03-09T08:14:53;41.42;;;18.10;;
26319;SDS011;14024;52.226;5.200;2023-03-09T08:17:19;41.63;;;16.65;;
26319;SDS011;14024;52.226;5.200;2023-03-09T08:19:45;40.05;;;17.23;;
26319;SDS011;14024;52.226;5.200;2023-03-09T08:22:11;41.35;;;17.05;;
26319;SDS011;14024;52.226;5.200;2023-03-09T08:24:37;41.60;;;16.73;;
26319;SDS011;14024;52.226;5.200;2023-03-09T08:27:03;38.40;;;15.63;;
26319;SDS011;14024;52.226;5.200;2023-03-09T08:29:29;41.53;;;16.38;;
26319;SDS011;14024;52.226;5.200;2023-03-09T08:31:55;37.90;;;15.95;;
26319;SDS011;14024;52.226;5.200;2023-03-09T08:34:21;39.15;;;16.08;;
26319;SDS011;14024;52.226;5.200;2023-03-09T08:36:47;45.85;;;15.95;;
26319;SDS011;14024;52.226;5.200;2023-03-09T08:39:13;39.10;;;17.35;;
26319;SDS011;14024;52.226;5.200;2023-03-09T08:41:39;41.63;;;16.98;;
26319;SDS011;14024;52.226;5.200;2023-03-09T08:44:05;40.03;;;16.25;;
26319;SDS011;14024;52.226;5.200;2023-03-09T08:46:31;40.75;;;16.75;;
26319;SDS011;14024;52.226;5.200;2023-03-09T08:48:57;44.20;;;17.50;;
26319;SDS011;14024;52.226;5.200;2023-03-09T08:51:25;38.97;;;18.05;;
26319;SDS011;14024;52.226;5.200;2023-03-09T08:53:53;43.80;;;16.63;;
26319;SDS011;14024;52.226;5.200;2023-03-09T08:56:20;42.35;;;16.63;;
26319;SDS011;14024;52.226;5.200;2023-03-09T08:58:46;41.03;;;17.70;;
26319;SDS011;14024;52.226;5.200;2023-03-09T09:01:12;38.55;;;16.58;;
26319;SDS011;14024;52.226;5.200;2023-03-09T09:03:38;45.78;;;17.48;;
26319;SDS011;14024;52.226;5.200;2023-03-09T09:06:05;39.60;;;16.52;;
26319;SDS011;14024;52.226;5.200;2023-03-09T09:08:32;40.83;;;17.55;;
26319;SDS011;14024;52.226;5.200;2023-03-09T09:10:58;41.45;;;17.83;;
26319;SDS011;14024;52.226;5.200;2023-03-09T09:13:24;42.72;;;17.95;;
26319;SDS011;14024;52.226;5.200;2023-03-09T09:15:53;45.88;;;18.10;;
26319;SDS011;14024;52.226;5.200;2023-03-09T09:18:20;41.72;;;16.90;;
26319;SDS011;14024;52.226;5.200;2023-03-09T09:20:46;46.50;;;17.35;;
26319;SDS011;14024;52.226;5.200;2023-03-09T09:23:13;47.53;;;18.67;;
26319;SDS011;14024;52.226;5.200;2023-03-09T09:25:39;43.65;;;17.25;;
26319;SDS011;14024;52.226;5.200;2023-03-09T09:28:05;41.97;;;17.67;;
26319;SDS011;14024;52.226;5.200;2023-03-09T09:30:31;44.10;;;18.45;;
26319;SDS011;14024;52.226;5.200;2023-03-09T09:32:58;45.63;;;18.02;;
26319;SDS011;14024;52.226;5.200;2023-03-09T09:35:24;40.55;;;16.52;;
26319;SDS011;14024;52.226;5.200;2023-03-09T09:37:50;38.33;;;16.13;;
26319;SDS011;14024;52.226;5.200;2023-03-09T09:40:19;41.88;;;17.48;;
26319;SDS011;14024;52.226;5.200;2023-03-09T09:42:45;39.05;;;17.00;;
26319;SDS011;14024;52.226;5.200;2023-03-09T09:47:47;41.15;;;17.30;;
26319;SDS011;14024;52.226;5.200;2023-03-09T09:50:13;41.15;;;16.02;;
26319;SDS011;14024;52.226;5.200;2023-03-09T09:55:25;38.25;;;16.88;;
26319;SDS011;14024;52.226;5.200;2023-03-09T09:57:56;42.58;;;17.35;;
26319;SDS011;14024;52.226;5.200;2023-03-09T10:00:28;37.22;;;15.30;;
26319;SDS011;14024;52.226;5.200;2023-03-09T10:03:10;36.67;;;15.25;;
26319;SDS011;14024;52.226;5.200;2023-03-09T10:05:56;39.75;;;15.88;;
26319;SDS011;14024;52.226;5.200;2023-03-09T10:14:39;35.70;;;14.88;;
26319;SDS011;14024;52.226;5.200;2023-03-09T10:16:40;37.63;;;15.77;;
26319;SDS011;14024;52.226;5.200;2023-03-09T10:19:12;34.33;;;15.05;;
26319;SDS011;14024;52.226;5.200;2023-03-09T10:21:44;38.38;;;14.75;;
26319;SDS011;14024;52.226;5.200;2023-03-09T10:24:20;31.65;;;14.18;;
26319;SDS011;14024;52.226;5.200;2023-03-09T10:26:57;37.55;;;16.60;;
26319;SDS011;14024;52.226;5.200;2023-03-09T10:29:27;41.08;;;16.23;;
26319;SDS011;14024;52.226;5.200;2023-03-09T10:32:00;40.75;;;16.77;;
26319;SDS011;14024;52.226;5.200;2023-03-09T10:34:29;40.17;;;16.95;;
26319;SDS011;14024;52.226;5.200;2023-03-09T10:37:00;39.22;;;15.60;;
26319;SDS011;14024;52.226;5.200;2023-03-09T10:39:32;39.00;;;16.27;;
26319;SDS011;14024;52.226;5.200;2023-03-09T10:42:01;39.20;;;17.13;;
26319;SDS011;14024;52.226;5.200;2023-03-09T10:44:27;39.17;;;16.35;;
26319;SDS011;14024;52.226;5.200;2023-03-09T10:46:54;38.47;;;16.58;;
26319;SDS011;14024;52.226;5.200;2023-03-09T10:49:21;40.55;;;16.63;;
26319;SDS011;14024;52.226;5.200;2023-03-09T10:51:54;38.38;;;16.05;;
26319;SDS011;14024;52.226;5.200;2023-03-09T10:56:53;41.80;;;16.90;;
26319;SDS011;14024;52.226;5.200;2023-03-09T10:59:20;38.13;;;15.88;;
26319;SDS011;14024;52.226;5.200;2023-03-09T11:01:47;40.35;;;16.77;;
26319;SDS011;14024;52.226;5.200;2023-03-09T11:06:49;43.58;;;18.77;;
26319;SDS011;14024;52.226;5.200;2023-03-09T11:09:29;37.95;;;16.52;;
26319;SDS011;14024;52.226;5.200;2023-03-09T11:12:16;38.88;;;16.67;;
26319;SDS011;14024;52.226;5.200;2023-03-09T11:14:50;38.88;;;15.98;;
26319;SDS011;14024;52.226;5.200;2023-03-09T11:17:27;40.65;;;16.45;;
26319;SDS011;14024;52.226;5.200;2023-03-09T11:22:40;40.97;;;16.85;;
26319;SDS011;14024;52.226;5.200;2023-03-09T11:25:14;39.75;;;17.23;;
26319;SDS011;14024;52.226;5.200;2023-03-09T11:27:43;43.05;;;16.90;;
26319;SDS011;14024;52.226;5.200;2023-03-09T11:30:16;43.75;;;17.88;;
26319;SDS011;14024;52.226;5.200;2023-03-09T11:32:42;45.17;;;17.67;;
26319;SDS011;14024;52.226;5.200;2023-03-09T11:35:11;39.90;;;16.65;;
26319;SDS011;14024;52.226;5.200;2023-03-09T11:37:47;41.33;;;16.38;;
26319;SDS011;14024;52.226;5.200;2023-03-09T11:40:16;39.20;;;16.17;;
26319;SDS011;14024;52.226;5.200;2023-03-09T11:42:45;40.08;;;16.42;;
26319;SDS011;14024;52.226;5.200;2023-03-09T11:45:14;44.20;;;17.48;;
26319;SDS011;14024;52.226;5.200;2023-03-09T11:47:52;38.85;;;16.60;;
26319;SDS011;14024;52.226;5.200;2023-03-09T11:52:54;38.47;;;15.70;;
26319;SDS011;14024;52.226;5.200;2023-03-09T11:55:30;41.50;;;16.67;;
26319;SDS011;14024;52.226;5.200;2023-03-09T11:57:59;43.45;;;18.05;;
26319;SDS011;14024;52.226;5.200;2023-03-09T12:00:26;40.97;;;17.17;;
26319;SDS011;14024;52.226;5.200;2023-03-09T12:03:02;41.63;;;17.65;;
26319;SDS011;14024;52.226;5.200;2023-03-09T12:05:35;40.88;;;17.40;;
26319;SDS011;14024;52.226;5.200;2023-03-09T12:10:39;45.53;;;17.80;;
26319;SDS011;14024;52.226;5.200;2023-03-09T12:13:12;35.70;;;15.93;;
26319;SDS011;14024;52.226;5.200;2023-03-09T12:15:41;38.80;;;17.50;;
26319;SDS011;14024;52.226;5.200;2023-03-09T12:18:24;45.45;;;17.50;;
26319;SDS011;14024;52.226;5.200;2023-03-09T12:20:55;39.03;;;16.85;;
26319;SDS011;14024;52.226;5.200;2023-03-09T12:26:04;43.80;;;18.48;;
26319;SDS011;14024;52.226;5.200;2023-03-09T12:28:31;41.28;;;16.85;;
26319;SDS011;14024;52.226;5.200;2023-03-09T12:30:58;40.45;;;16.95;;
26319;SDS011;14024;52.226;5.200;2023-03-09T12:36:22;42.58;;;18.77;;
26319;SDS011;14024;52.226;5.200;2023-03-09T12:41:54;51.90;;;21.83;;
26319;SDS011;14024;52.226;5.200;2023-03-09T12:47:04;42.40;;;17.98;;
26319;SDS011;14024;52.226;5.200;2023-03-09T12:49:31;42.53;;;17.40;;
26319;SDS011;14024;52.226;5.200;2023-03-09T12:52:02;44.85;;;18.55;;
26319;SDS011;14024;52.226;5.200;2023-03-09T12:54:31;42.22;;;18.02;;
26319;SDS011;14024;52.226;5.200;2023-03-09T12:56:57;43.25;;;17.67;;
26319;SDS011;14024;52.226;5.200;2023-03-09T12:59:33;37.75;;;15.50;;
26319;SDS011;14024;52.226;5.200;2023-03-09T13:01:59;38.10;;;16.75;;
26319;SDS011;14024;52.226;5.200;2023-03-09T13:04:46;44.42;;;16.88;;
26319;SDS011;14024;52.226;5.200;2023-03-09T13:07:29;38.22;;;15.55;;
26319;SDS011;14024;52.226;5.200;2023-03-09T13:09:55;39.28;;;17.45;;
26319;SDS011;14024;52.226;5.200;2023-03-09T13:12:28;36.72;;;16.17;;
26319;SDS011;14024;52.226;5.200;2023-03-09T13:20:36;45.63;;;18.45;;
26319;SDS011;14024;52.226;5.200;2023-03-09T13:23:08;44.70;;;18.52;;
26319;SDS011;14024;52.226;5.200;2023-03-09T13:25:50;40.80;;;17.90;;
26319;SDS011;14024;52.226;5.200;2023-03-09T13:28:59;42.28;;;16.50;;
26319;SDS011;14024;52.226;5.200;2023-03-09T13:31:20;39.22;;;16.13;;
26319;SDS011;14024;52.226;5.200;2023-03-09T13:33:46;41.55;;;16.77;;
26319;SDS011;14024;52.226;5.200;2023-03-09T13:36:14;46.25;;;17.27;;
26319;SDS011;14024;52.226;5.200;2023-03-09T13:38:43;40.85;;;16.85;;
26319;SDS011;14024;52.226;5.200;2023-03-09T13:41:16;41.15;;;16.63;;
26319;SDS011;14024;52.226;5.200;2023-03-09T13:43:44;44.78;;;16.85;;
26319;SDS011;14024;52.226;5.200;2023-03-09T13:46:30;39.90;;;16.45;;
26319;SDS011;14024;52.226;5.200;2023-03-09T13:48:58;35.97;;;16.75;;
26319;SDS011;14024;52.226;5.200;2023-03-09T13:53:52;43.50;;;17.02;;
26319;SDS011;14024;52.226;5.200;2023-03-09T13:56:18;43.03;;;16.50;;
26319;SDS011;14024;52.226;5.200;2023-03-09T13:58:44;41.42;;;17.70;;
26319;SDS011;14024;52.226;5.200;2023-03-09T14:03:50;40.75;;;17.15;;
26319;SDS011;14024;52.226;5.200;2023-03-09T14:06:20;44.53;;;16.75;;
26319;SDS011;14024;52.226;5.200;2023-03-09T14:08:49;42.00;;;17.75;;
26319;SDS011;14024;52.226;5.200;2023-03-09T14:11:21;38.38;;;15.73;;
26319;SDS011;14024;52.226;5.200;2023-03-09T14:13:49;37.28;;;15.25;;
26319;SDS011;14024;52.226;5.200;2023-03-09T14:16:16;41.85;;;17.35;;
26319;SDS011;14024;52.226;5.200;2023-03-09T14:18:49;38.70;;;16.38;;
26319;SDS011;14024;52.226;5.200;2023-03-09T14:23:42;38.33;;;16.15;;
26319;SDS011;14024;52.226;5.200;2023-03-09T14:26:08;37.92;;;14.85;;
26319;SDS011;14024;52.226;5.200;2023-03-09T14:28:36;34.45;;;14.48;;
26319;SDS011;14024;52.226;5.200;2023-03-09T14:31:20;36.35;;;14.95;;
26319;SDS011;14024;52.226;5.200;2023-03-09T14:34:00;36.28;;;15.40;;
26319;SDS011;14024;52.226;5.200;2023-03-09T14:36:27;37.70;;;16.17;;
26319;SDS011;14024;52.226;5.200;2023-03-09T14:38:54;42.15;;;16.63;;
26319;SDS011;14024;52.226;5.200;2023-03-09T14:41:25;33.33;;;15.35;;
26319;SDS011;14024;52.226;5.200;2023-03-09T14:43:52;38.55;;;16.00;;
26319;SDS011;14024;52.226;5.200;2023-03-09T14:46:19;37.45;;;15.63;;
26319;SDS011;14024;52.226;5.200;2023-03-09T14:48:46;36.97;;;16.13;;
26319;SDS011;14024;52.226;5.200;2023-03-09T14:51:13;41.90;;;16.45;;
26319;SDS011;14024;52.226;5.200;2023-03-09T14:53:53;39.22;;;15.88;;
26319;SDS011;14024;52.226;5.200;2023-03-09T14:56:19;37.92;;;16.20;;
26319;SDS011;14024;52.226;5.200;2023-03-09T14:58:45;35.75;;;16.13;;
26319;SDS011;14024;52.226;5.200;2023-03-09T15:01:11;38.05;;;15.32;;
26319;SDS011;14024;52.226;5.200;2023-03-09T15:03:38;37.45;;;15.23;;
26319;SDS011;14024;52.226;5.200;2023-03-09T15:06:04;41.13;;;16.40;;
26319;SDS011;14024;52.226;5.200;2023-03-09T15:08:30;39.00;;;16.52;;
26319;SDS011;14024;52.226;5.200;2023-03-09T15:10:57;37.85;;;14.68;;
26319;SDS011;14024;52.226;5.200;2023-03-09T15:13:23;36.75;;;14.35;;
26319;SDS011;14024;52.226;5.200;2023-03-09T15:15:48;34.65;;;14.98;;
26319;SDS011;14024;52.226;5.200;2023-03-09T15:18:14;36.55;;;15.43;;
26319;SDS011;14024;52.226;5.200;2023-03-09T15:20:40;34.42;;;14.80;;
26319;SDS011;14024;52.226;5.200;2023-03-09T15:23:06;34.05;;;15.38;;